WetterOnline ( https://www.wetteronline.ch )

Wetter aktuell Freiburg

Aktuelles Wetter: Freiburg/Flugplatz (236m)

6-stündlich | Neueste Meldungen
Ortszeit Temperatur Wetter
Mo, 24.02. 1:00 13.7° C bedeckt
So, 23.02. 19:00 15.2° C bedeckt
So, 23.02. 13:00 13.8° C wolkig
So, 23.02. 7:00 10.1° C bedeckt
So, 23.02. 1:00 11.2° C bedeckt
Sa, 22.02. 19:00 13.5° C bedeckt
Sa, 22.02. 13:00 13.1° C fast wolkenlos
Sa, 22.02. 7:00 -1.9° C wolkig
Ortszeit Temperatur Wetter
Mo, 24.02. 2:00 12.9° C bedeckt
Mo, 24.02. 1:50 12.9° C bedeckt
Mo, 24.02. 1:40 13.1° C bedeckt
Mo, 24.02. 1:30 13.3° C bedeckt
Mo, 24.02. 1:20 13.3° C bedeckt
Mo, 24.02. 1:10 13.4° C bedeckt
Mo, 24.02. 1:00 13.7° C bedeckt
Mo, 24.02. 0:30 13.9° C bedeckt
Mo, 24.02. 0:00 14.1° C bedeckt
So, 23.02. 23:30 14.3° C bedeckt
So, 23.02. 23:00 14.5° C bedeckt
Ortszeit Relative Feuchte Sichtweite
Mo, 24.02. 1:00 68% 70 km
So, 23.02. 19:00 50% 70 km
So, 23.02. 13:00 37% 70 km
So, 23.02. 7:00 60% 55 km
So, 23.02. 1:00 46% 50 km
Sa, 22.02. 19:00 24% 70 km
Sa, 22.02. 13:00 20% 21 km
Sa, 22.02. 7:00 88% 35 km
Ortszeit Relative Feuchte Sichtweite
Mo, 24.02. 2:00 72% 70 km
Mo, 24.02. 1:50 72% -
Mo, 24.02. 1:40 71% -
Mo, 24.02. 1:30 70% 70 km
Mo, 24.02. 1:20 70% -
Mo, 24.02. 1:10 69% -
Mo, 24.02. 1:00 68% 70 km
Mo, 24.02. 0:30 67% 70 km
Mo, 24.02. 0:00 65% 70 km
So, 23.02. 23:30 63% 70 km
So, 23.02. 23:00 61% 70 km
Ortszeit Niederschlagsmenge Niederschlagsart
Mo, 24.02. 1:00 0.0 l/m2 in 6 Std. -
So, 23.02. 19:00 0.0 l/m2 in 12 Std. -
So, 23.02. 13:00 0.0 l/m2 in 6 Std. -
So, 23.02. 7:00 2 l/m2 in 12 Std. Regen
So, 23.02. 1:00 0.0 l/m2 in 6 Std. -
Sa, 22.02. 19:00 0.0 l/m2 in 12 Std. -
Sa, 22.02. 13:00 0.0 l/m2 in 6 Std. -
Sa, 22.02. 7:00 0.0 l/m2 in 12 Std. -
Ortszeit Niederschlagsmenge Niederschlagsart
Mo, 24.02. 2:00 0.0 l/m2 in 1 Std. -
Mo, 24.02. 1:50 keine Meldung -
Mo, 24.02. 1:40 keine Meldung -
Mo, 24.02. 1:30 0.0 l/m2 in 1 Std. -
Mo, 24.02. 1:20 keine Meldung -
Mo, 24.02. 1:10 keine Meldung -
Mo, 24.02. 1:00 0.0 l/m2 in 1 Std. -
Mo, 24.02. 0:30 0.0 l/m2 in 1 Std. -
Mo, 24.02. 0:00 0.0 l/m2 in 1 Std. -
So, 23.02. 23:30 0.0 l/m2 in 1 Std. -
So, 23.02. 23:00 0.0 l/m2 in 1 Std. -
Ortszeit Stärke Spitze Richtung
km/h Bft. km/h Grad Sektor
Mo, 24.02. 1:00 22 4 50 220° SW
So, 23.02. 19:00 26 4 61 220° SW
So, 23.02. 13:00 22 4 54 230° SW
So, 23.02. 7:00 20 4 39 210° SW
So, 23.02. 1:00 24 4 44 210° SW
Sa, 22.02. 19:00 22 4 50 210° SW
Sa, 22.02. 13:00 32 5 47 210° SW
Sa, 22.02. 7:00 0 0 7 - -
Ortszeit Stärke Spitze Richtung
km/h Bft. km/h Grad Sektor
Mo, 24.02. 2:00 24 4 37 220° SW
Mo, 24.02. 1:50 24 4 - 220° SW
Mo, 24.02. 1:40 24 4 - 220° SW
Mo, 24.02. 1:30 22 4 37 220° SW
Mo, 24.02. 1:20 22 4 - 220° SW
Mo, 24.02. 1:10 24 4 - 220° SW
Mo, 24.02. 1:00 22 4 43 220° SW
Mo, 24.02. 0:30 25 4 43 220° SW
Mo, 24.02. 0:00 22 4 43 220° SW
So, 23.02. 23:30 28 4 44 210° SW
So, 23.02. 23:00 24 4 43 220° SW
Ortszeit Untergrenze Bedeckung Gattung
total tief tief mittel hoch
Mo, 24.02. 1:00 1110 m 8/8 8/8 - - -
So, 23.02. 19:00 1470 m 8/8 8/8 - - -
So, 23.02. 13:00 1500 m 8/8 3/8 - - -
So, 23.02. 7:00 1110 m 8/8 8/8 - - -
So, 23.02. 1:00 1500 m 8/8 8/8 - - -
Sa, 22.02. 19:00 3900 m 8/8 8/8 - - -
Sa, 22.02. 13:00 9000 m 2/8 0/8 - - -
Sa, 22.02. 7:00 9000 m 8/8 0/8 - - -
Ortszeit Bedeckungsgrad in Achtel und Wolkenuntergrenze
Mo, 24.02. 2:00 8(1080m)
Mo, 24.02. 1:50 8(1080m)
Mo, 24.02. 1:40 8(1080m)
Mo, 24.02. 1:30 8(1050m)
Mo, 24.02. 1:20 8(1050m)
Mo, 24.02. 1:10 8(1050m)
Mo, 24.02. 1:00 8(1110m)
Mo, 24.02. 0:30 8(1200m)
Mo, 24.02. 0:00 8(1200m)
So, 23.02. 23:30 8(1260m)
So, 23.02. 23:00 8(1230m)
Ortszeit Luftdruck NN (hPa) Tendenz (hPa in 3 Std.)
Mo, 24.02. 1:00 1026 + 1,0
So, 23.02. 19:00 1024 + 0,8
So, 23.02. 13:00 1026 - 1,3
So, 23.02. 7:00 1028 - 1,0
So, 23.02. 1:00 1030 - 0,4
Sa, 22.02. 19:00 1029 + 1,1
Sa, 22.02. 13:00 1029 - 1,2
Sa, 22.02. 7:00 1032 + 0,1
Ortszeit Luftdruck NN (hPa) Tendenz (hPa in 3 Std.)
Mo, 24.02. 2:00 1026 + 0,8
Mo, 24.02. 1:50 1026 keine Meldung
Mo, 24.02. 1:40 1026 keine Meldung
Mo, 24.02. 1:30 1026 + 1,1
Mo, 24.02. 1:20 1026 keine Meldung
Mo, 24.02. 1:10 1026 keine Meldung
Mo, 24.02. 1:00 1026 + 1,0
Mo, 24.02. 0:30 1026 + 1,3
Mo, 24.02. 0:00 1026 + 1,2
So, 23.02. 23:30 1025 + 0,8
So, 23.02. 23:00 1025 + 0,8
Ortszeit Schneehöhe (cm)
Mo, 24.02. 1:00 0
So, 23.02. 19:00 0
So, 23.02. 13:00 0
So, 23.02. 7:00 0
So, 23.02. 1:00 0
Sa, 22.02. 19:00 0
Sa, 22.02. 13:00 0
Sa, 22.02. 7:00 0
Ortszeit Schneehöhe (cm)
Mo, 24.02. 2:00 0
Mo, 24.02. 1:50 0
Mo, 24.02. 1:40 0
Mo, 24.02. 1:30 0
Mo, 24.02. 1:20 0
Mo, 24.02. 1:10 0
Mo, 24.02. 1:00 0
Mo, 24.02. 0:30 0
Mo, 24.02. 0:00 0
So, 23.02. 23:30 0
So, 23.02. 23:00 0
Link zu dieser Seite / Seite empfehlen

Das Wetter in ...